createdAt,value
2018-07-25T00:00:57.356Z,6.87
2018-07-25T00:03:38.504Z,6.87
2018-07-25T00:06:20.177Z,5.97
2018-07-25T00:09:03.117Z,6.57
2018-07-25T00:11:44.789Z,7.70
2018-07-25T00:14:26.300Z,4.70
2018-07-25T00:17:07.059Z,8.40
2018-07-25T00:19:47.768Z,6.27
2018-07-25T00:22:29.294Z,5.27
2018-07-25T00:25:14.614Z,5.73
2018-07-25T00:27:59.108Z,5.87
2018-07-25T00:30:48.196Z,5.57
2018-07-25T00:33:42.641Z,5.13
2018-07-25T00:36:36.253Z,12.50
2018-07-25T00:42:27.548Z,5.20
2018-07-25T00:45:18.604Z,12.47
2018-07-25T00:48:17.443Z,4.60
2018-07-25T00:51:03.189Z,18.33
2018-07-25T00:53:51.084Z,6.27
2018-07-25T00:57:31.995Z,5.00
2018-07-25T01:00:26.730Z,6.40
2018-07-25T01:03:23.860Z,6.90
2018-07-25T01:06:13.828Z,10.60
2018-07-25T01:57:41.025Z,5.93
2018-07-25T02:00:22.657Z,4.70
2018-07-25T02:03:04.284Z,4.87
2018-07-25T02:05:45.985Z,7.23
2018-07-25T02:08:27.617Z,6.43
2018-07-25T02:11:09.213Z,4.33
2018-07-25T02:13:49.860Z,7.20
2018-07-25T02:16:31.554Z,6.40
2018-07-25T02:19:13.308Z,4.77
2018-07-25T02:21:54.023Z,4.23
2018-07-25T02:24:34.790Z,6.70
2018-07-25T02:27:16.803Z,5.70
2018-07-25T02:29:58.201Z,5.50
2018-07-25T02:32:39.416Z,7.80
2018-07-25T02:35:21.976Z,6.20
2018-07-25T02:38:03.829Z,6.53
2018-07-25T02:40:45.414Z,5.83
2018-07-25T02:43:27.161Z,4.97
2018-07-25T02:46:08.810Z,6.57
2018-07-25T02:48:49.626Z,14.20
2018-07-25T02:51:32.021Z,9.37
2018-07-25T02:54:12.771Z,5.63
2018-07-25T02:56:54.416Z,8.83
2018-07-25T02:59:36.090Z,10.00
2018-07-25T03:02:17.909Z,19.57
2018-07-25T03:04:59.266Z,6.63
2018-07-25T03:07:40.225Z,7.70
2018-07-25T03:10:20.961Z,19.77
2018-07-25T03:13:03.319Z,5.50
2018-07-25T03:15:43.953Z,5.37
2018-07-25T03:18:25.702Z,6.60
2018-07-25T03:21:07.205Z,8.50
2018-07-25T03:23:48.724Z,6.47
2018-07-25T03:26:30.381Z,7.83
2018-07-25T03:29:12.066Z,4.43
2018-07-25T03:31:52.984Z,8.47
2018-07-25T03:34:34.420Z,6.40
2018-07-25T03:37:16.043Z,4.00
2018-07-25T03:39:57.545Z,8.80
2018-07-25T03:42:39.967Z,5.77
2018-07-25T03:45:20.616Z,5.80
2018-07-25T03:48:02.688Z,5.60
2018-07-25T03:50:44.017Z,7.63
2018-07-25T03:53:26.451Z,7.23
2018-07-25T03:56:07.375Z,5.03
2018-07-25T03:58:48.163Z,6.70
2018-07-25T04:01:28.918Z,4.23
2018-07-25T04:04:09.633Z,6.60
2018-07-25T04:06:51.294Z,15.00
2018-07-25T04:09:32.855Z,8.63
2018-07-25T04:12:14.521Z,13.10
2018-07-25T04:14:55.205Z,14.23
2018-07-25T04:17:41.913Z,41.33
2018-07-25T04:20:23.436Z,36.17
2018-07-25T04:23:05.012Z,30.70
2018-07-25T04:25:46.577Z,33.17
2018-07-25T04:28:28.315Z,32.00
2018-07-25T04:31:08.939Z,15.93
2018-07-25T04:33:49.953Z,10.37
2018-07-25T04:36:31.615Z,10.03
2018-07-25T04:39:13.492Z,15.33
2018-07-25T04:41:54.856Z,4.40
2018-07-25T04:44:36.355Z,6.73
2018-07-25T04:47:17.975Z,19.97
2018-07-25T04:49:58.932Z,79.37
2018-07-25T04:52:40.509Z,89.63
2018-07-25T04:55:21.184Z,83.33
2018-07-25T04:58:02.656Z,81.17
2018-07-25T05:00:44.231Z,49.97
2018-07-25T05:03:24.917Z,43.33
2018-07-25T05:06:06.700Z,20.20
2018-07-25T05:08:48.156Z,14.73
2018-07-25T05:11:28.852Z,22.67
2018-07-25T05:14:10.504Z,28.70
2018-07-25T05:16:52.041Z,16.30
2018-07-25T05:19:33.608Z,17.67
2018-07-25T05:22:15.299Z,28.53
2018-07-25T05:24:56.823Z,37.07
2018-07-25T05:27:37.466Z,40.90
2018-07-25T05:30:19.251Z,72.63
2018-07-25T05:33:01.112Z,49.80
2018-07-25T05:35:42.542Z,45.07
2018-07-25T05:38:24.174Z,28.70
2018-07-25T05:41:04.844Z,51.57
2018-07-25T05:43:45.602Z,88.80
2018-07-25T05:46:27.472Z,43.73
2018-07-25T05:49:08.991Z,26.20
2018-07-25T05:51:50.644Z,12.97
2018-07-25T05:54:32.544Z,31.97
2018-07-25T05:57:13.617Z,20.97
2018-07-25T05:59:55.176Z,24.80
2018-07-25T06:02:36.793Z,14.90
2018-07-25T06:05:22.145Z,14.67
2018-07-25T06:08:02.954Z,14.93
2018-07-25T06:10:44.476Z,12.67
2018-07-25T06:13:26.056Z,17.33
2018-07-25T06:16:07.729Z,24.13
2018-07-25T06:18:49.386Z,29.73
2018-07-25T06:21:31.240Z,21.73
2018-07-25T06:24:12.701Z,23.20
2018-07-25T06:26:54.439Z,30.73
2018-07-25T06:29:36.313Z,24.50
2018-07-25T06:32:17.891Z,29.97
2018-07-25T06:34:59.699Z,31.77
2018-07-25T06:37:40.802Z,31.17
2018-07-25T06:40:22.888Z,30.77
2018-07-25T06:43:04.728Z,37.67
2018-07-25T06:45:45.504Z,41.60
2018-07-25T06:48:27.712Z,44.10
2018-07-25T06:51:09.174Z,30.33
2018-07-25T06:53:50.429Z,43.50
2018-07-25T06:56:32.397Z,24.03
2018-07-25T06:59:13.799Z,14.93
2018-07-25T07:01:55.401Z,23.13
2018-07-25T07:04:36.847Z,19.50
2018-07-25T07:07:18.637Z,19.20
2018-07-25T07:10:00.102Z,25.93
2018-07-25T07:12:42.947Z,13.93
2018-07-25T07:15:24.435Z,12.53
2018-07-25T07:18:06.015Z,13.10
2018-07-25T07:20:47.656Z,17.83
2018-07-25T07:23:28.555Z,13.10
2018-07-25T07:26:10.555Z,14.07
2018-07-25T07:28:51.505Z,15.43
2018-07-25T07:31:33.055Z,11.73
2018-07-25T07:34:14.617Z,14.33
2018-07-25T07:36:56.864Z,14.50
2018-07-25T07:39:37.649Z,13.13
2018-07-25T07:42:19.217Z,14.80
2018-07-25T07:45:00.425Z,12.87
2018-07-25T07:47:41.476Z,15.03
2018-07-25T07:50:22.932Z,9.13
2018-07-25T07:53:04.748Z,7.13
2018-07-25T07:55:45.966Z,9.40
2018-07-25T07:58:27.758Z,13.90
2018-07-25T08:01:08.978Z,23.37
2018-07-25T08:03:50.461Z,6.97
2018-07-25T08:06:31.789Z,8.37
2018-07-25T08:09:14.175Z,12.53
2018-07-25T08:11:55.422Z,11.00
2018-07-25T08:14:36.165Z,8.17
2018-07-25T08:17:17.794Z,10.53
2018-07-25T08:19:59.656Z,14.63
2018-07-25T08:22:41.009Z,8.40
2018-07-25T08:25:22.968Z,11.63
2018-07-25T08:28:05.168Z,8.90
2018-07-25T08:30:46.044Z,7.70
2018-07-25T08:33:27.629Z,9.97
2018-07-25T08:36:09.527Z,15.97
2018-07-25T08:38:51.610Z,12.13
2018-07-25T08:41:32.634Z,14.10
2018-07-25T08:44:13.391Z,12.10
2018-07-25T08:46:55.142Z,14.97
2018-07-25T08:49:36.746Z,13.33
2018-07-25T08:52:17.829Z,10.93
2018-07-25T08:54:59.194Z,17.50
2018-07-25T08:57:40.793Z,8.10
2018-07-25T09:00:21.492Z,9.30
2018-07-25T09:03:02.256Z,7.33
2018-07-25T09:05:42.947Z,15.47
2018-07-25T09:08:23.752Z,6.50
2018-07-25T09:11:05.413Z,7.60
2018-07-25T09:13:47.098Z,6.83
2018-07-25T09:16:28.625Z,10.00
2018-07-25T09:19:10.072Z,11.20
2018-07-25T09:21:51.794Z,8.67
2018-07-25T09:24:32.374Z,14.60
2018-07-25T09:27:13.468Z,11.30
2018-07-25T09:29:55.070Z,7.50
2018-07-25T09:32:36.640Z,10.37
2018-07-25T09:35:18.277Z,7.00
2018-07-25T09:37:59.648Z,8.10
2018-07-25T09:40:41.278Z,7.50
2018-07-25T09:43:23.400Z,6.33
2018-07-25T09:46:04.708Z,6.77
2018-07-25T09:48:45.578Z,7.13
2018-07-25T09:51:26.243Z,7.10
2018-07-25T09:54:08.339Z,7.43
2018-07-25T09:56:50.059Z,7.23
2018-07-25T09:59:31.216Z,7.83
2018-07-25T10:02:13.691Z,9.57
2018-07-25T10:04:54.923Z,18.13
2018-07-25T10:07:36.012Z,13.90
2018-07-25T10:10:17.520Z,5.80
2018-07-25T10:12:58.372Z,9.00
2018-07-25T10:15:40.106Z,10.67
2018-07-25T10:18:20.825Z,9.13
2018-07-25T10:21:01.523Z,11.30
2018-07-25T10:23:43.261Z,8.03
2018-07-25T10:26:25.030Z,11.43
2018-07-25T10:29:07.044Z,8.53
2018-07-25T10:31:48.638Z,8.07
2018-07-25T10:34:29.672Z,9.57
2018-07-25T10:37:10.669Z,9.60
2018-07-25T10:39:52.141Z,11.03
2018-07-25T10:42:33.841Z,9.20
2018-07-25T10:45:15.409Z,9.33
2018-07-25T10:47:56.096Z,13.97
2018-07-25T10:50:37.437Z,9.83
2018-07-25T10:53:18.495Z,16.07
2018-07-25T10:56:00.138Z,16.30
2018-07-25T10:58:41.623Z,9.00
2018-07-25T11:01:23.389Z,7.20
2018-07-25T11:04:04.360Z,10.73
2018-07-25T11:06:45.761Z,8.87
2018-07-25T11:09:27.320Z,13.20
2018-07-25T11:12:08.848Z,9.07
2018-07-25T11:14:50.359Z,8.47
2018-07-25T11:17:32.020Z,10.77
2018-07-25T11:20:12.762Z,11.53
2018-07-25T11:22:54.570Z,13.27
2018-07-25T11:25:35.993Z,11.93
2018-07-25T11:28:17.437Z,12.87
2018-07-25T11:30:58.984Z,8.20
2018-07-25T11:33:40.608Z,16.83
2018-07-25T11:36:21.450Z,14.53
2018-07-25T11:39:02.992Z,6.20
2018-07-25T11:41:45.540Z,17.60
2018-07-25T11:44:27.048Z,5.87
2018-07-25T11:47:07.679Z,6.60
2018-07-25T11:49:49.867Z,15.43
2018-07-25T11:52:31.007Z,10.13
2018-07-25T11:55:11.794Z,10.97
2018-07-25T11:57:52.522Z,12.53
2018-07-25T12:00:34.993Z,7.77
2018-07-25T12:03:16.673Z,12.77
2018-07-25T12:05:58.090Z,8.37
2018-07-25T12:08:38.884Z,6.03
2018-07-25T12:11:20.848Z,8.67
2018-07-25T12:14:02.487Z,12.20
2018-07-25T12:16:44.048Z,9.90
2018-07-25T12:19:26.216Z,9.30
2018-07-25T12:22:07.506Z,6.20
2018-07-25T12:24:49.091Z,8.30
2018-07-25T12:27:31.092Z,10.63
2018-07-25T12:30:13.471Z,7.00
2018-07-25T12:32:55.112Z,6.20
2018-07-25T12:35:36.838Z,8.00
2018-07-25T12:38:18.317Z,13.80
2018-07-25T12:40:59.925Z,8.30
2018-07-25T12:43:40.711Z,8.67
2018-07-25T12:46:22.125Z,8.07
2018-07-25T12:49:02.888Z,6.60
2018-07-25T12:51:44.561Z,9.70
2018-07-25T12:54:26.607Z,7.10
2018-07-25T12:57:07.830Z,6.53
2018-07-25T12:59:49.019Z,8.30
2018-07-25T13:02:30.590Z,10.60
2018-07-25T13:05:12.026Z,10.40
2018-07-25T13:07:53.609Z,11.13
2018-07-25T13:10:35.472Z,8.27
2018-07-25T13:13:17.048Z,7.13
2018-07-25T13:15:58.732Z,5.63
2018-07-25T13:18:40.621Z,9.90
2018-07-25T13:21:22.560Z,8.70
2018-07-25T13:24:03.792Z,8.60
2018-07-25T13:26:44.629Z,11.10
2018-07-25T13:29:25.373Z,5.80
2018-07-25T13:32:06.080Z,6.67
2018-07-25T13:34:48.170Z,5.57
2018-07-25T13:37:29.370Z,16.07
2018-07-25T13:40:10.709Z,10.50
2018-07-25T13:42:51.524Z,13.43
2018-07-25T13:45:33.278Z,7.13
2018-07-25T13:48:15.050Z,6.43
2018-07-25T13:50:56.760Z,15.40
2018-07-25T13:53:37.500Z,7.63
2018-07-25T13:56:18.504Z,7.57
2018-07-25T13:58:59.857Z,11.33
2018-07-25T14:01:42.070Z,7.43
2018-07-25T14:04:23.106Z,12.43
2018-07-25T14:07:03.919Z,9.43
2018-07-25T14:09:45.817Z,9.03
2018-07-25T14:12:27.170Z,7.83
2018-07-25T14:15:08.675Z,9.97
2018-07-25T14:17:49.305Z,9.60
2018-07-25T14:20:31.040Z,8.33
2018-07-25T14:23:12.596Z,8.00
2018-07-25T14:25:53.733Z,11.93
2018-07-25T14:28:35.007Z,12.20
2018-07-25T14:31:16.513Z,8.53
2018-07-25T14:33:58.393Z,6.10
2018-07-25T14:36:39.789Z,8.20
2018-07-25T14:39:21.389Z,6.67
2018-07-25T14:42:02.773Z,6.57
2018-07-25T14:44:44.521Z,6.10
2018-07-25T14:47:26.411Z,8.07
2018-07-25T14:50:07.808Z,6.30
2018-07-25T14:52:49.180Z,12.70
2018-07-25T14:55:30.783Z,4.20
2018-07-25T14:58:12.090Z,8.47
2018-07-25T15:00:53.670Z,6.60
2018-07-25T15:03:35.154Z,4.43
2018-07-25T15:06:17.072Z,8.77
2018-07-25T15:08:58.135Z,8.97
2018-07-25T15:11:38.970Z,6.10
2018-07-25T15:14:20.515Z,4.23
2018-07-25T15:17:01.223Z,8.70
2018-07-25T15:19:42.904Z,9.90
2018-07-25T15:22:24.477Z,12.00
2018-07-25T15:25:05.228Z,6.00
2018-07-25T15:27:46.891Z,7.43
2018-07-25T15:30:28.447Z,10.10
2018-07-25T15:33:09.056Z,8.63
2018-07-25T15:35:49.854Z,6.40
2018-07-25T15:38:30.611Z,6.23
2018-07-25T15:41:11.428Z,9.10
2018-07-25T15:43:52.268Z,6.73
2018-07-25T15:46:33.858Z,5.73
2018-07-25T15:49:15.066Z,7.87
2018-07-25T15:51:56.125Z,9.60
2018-07-25T15:54:37.807Z,8.20
2018-07-25T15:57:19.520Z,5.50
2018-07-25T16:00:01.250Z,5.17
2018-07-25T16:02:42.885Z,4.70
2018-07-25T16:05:24.507Z,5.93
2018-07-25T16:08:05.246Z,5.57
2018-07-25T16:10:46.047Z,8.87
2018-07-25T16:13:28.642Z,8.33
2018-07-25T16:16:10.268Z,8.10
2018-07-25T16:18:52.305Z,6.33
2018-07-25T16:21:33.819Z,5.40
2018-07-25T16:24:14.538Z,6.83
2018-07-25T16:26:55.942Z,7.30
2018-07-25T16:29:37.499Z,7.87
2018-07-25T16:32:20.258Z,9.53
2018-07-25T16:35:01.629Z,6.00
2018-07-25T16:37:43.979Z,5.00
2018-07-25T16:40:25.121Z,6.03
2018-07-25T16:43:06.029Z,5.63
2018-07-25T16:45:47.695Z,3.90
2018-07-25T16:48:29.304Z,7.70
2018-07-25T16:51:10.057Z,7.20
2018-07-25T16:53:50.838Z,5.90
2018-07-25T16:56:32.598Z,3.70
2018-07-25T16:59:14.226Z,7.33
2018-07-25T17:01:55.809Z,7.43
2018-07-25T17:04:41.359Z,7.93
2018-07-25T17:07:22.018Z,10.97
2018-07-25T17:10:03.602Z,5.07
2018-07-25T17:12:45.172Z,11.40
2018-07-25T17:15:26.823Z,4.93
2018-07-25T17:18:08.554Z,4.90
2018-07-25T17:20:51.588Z,6.30
2018-07-25T17:23:32.811Z,6.73
2018-07-25T17:26:14.501Z,4.30
2018-07-25T17:28:56.509Z,7.67
2018-07-25T17:31:38.021Z,9.50
2018-07-25T17:34:19.716Z,10.97
2018-07-25T17:37:01.483Z,11.53
2018-07-25T17:39:43.022Z,7.87
2018-07-25T17:42:23.844Z,7.20
2018-07-25T17:45:05.415Z,4.63
2018-07-25T17:47:47.518Z,4.80
2018-07-25T17:50:29.208Z,6.17
2018-07-25T17:53:10.389Z,7.57
2018-07-25T17:55:51.881Z,8.20
2018-07-25T17:58:33.474Z,5.43
2018-07-25T18:01:15.294Z,4.23
2018-07-25T18:03:56.764Z,4.47
2018-07-25T18:06:38.498Z,6.03
2018-07-25T18:09:20.630Z,4.43
2018-07-25T18:12:01.868Z,7.57
2018-07-25T18:14:42.653Z,5.33
2018-07-25T18:17:23.458Z,10.77
2018-07-25T18:20:05.337Z,9.30
2018-07-25T18:22:46.781Z,4.30
2018-07-25T18:25:27.427Z,5.07
2018-07-25T18:28:08.307Z,4.40
2018-07-25T18:30:50.153Z,7.70
2018-07-25T18:33:31.915Z,5.87
2018-07-25T18:36:14.517Z,6.97
2018-07-25T18:38:56.250Z,13.63
2018-07-25T18:41:38.296Z,2.97
2018-07-25T18:44:19.531Z,7.83
2018-07-25T18:47:01.226Z,10.70
2018-07-25T18:49:43.534Z,9.00
2018-07-25T18:52:26.075Z,9.20
2018-07-25T18:55:08.188Z,8.60
2018-07-25T18:57:49.690Z,11.23
2018-07-25T19:00:31.783Z,7.23
2018-07-25T19:03:14.171Z,10.27
2018-07-25T19:05:55.685Z,8.17
2018-07-25T19:08:37.824Z,9.73
2018-07-25T19:11:19.825Z,5.10
2018-07-25T19:14:06.337Z,6.40
2018-07-25T19:16:47.420Z,9.57
2018-07-25T19:19:29.955Z,7.90
2018-07-25T19:22:11.600Z,5.83
2018-07-25T19:24:53.065Z,22.03
2018-07-25T19:27:34.892Z,10.03
2018-07-25T19:30:17.238Z,8.70
2018-07-25T19:32:58.970Z,6.00
2018-07-25T19:35:40.793Z,8.60
2018-07-25T19:38:22.438Z,4.10
2018-07-25T19:41:03.715Z,4.43
2018-07-25T19:43:45.726Z,9.53
2018-07-25T19:46:26.998Z,3.47
2018-07-25T19:49:08.952Z,3.70
2018-07-25T19:51:50.394Z,5.03
2018-07-25T19:54:32.027Z,6.83
2018-07-25T19:57:13.602Z,7.00
2018-07-25T19:59:54.391Z,8.37
2018-07-25T20:02:35.126Z,9.43
2018-07-25T20:05:16.929Z,9.30
2018-07-25T20:07:57.709Z,18.17
2018-07-25T20:10:41.540Z,20.73
2018-07-25T20:13:23.999Z,28.23
2018-07-25T20:16:05.509Z,33.70
2018-07-25T20:18:47.345Z,22.10
2018-07-25T20:21:28.889Z,16.80
2018-07-25T20:24:10.492Z,21.40
2018-07-25T20:26:52.551Z,17.93
2018-07-25T20:29:33.836Z,19.90
2018-07-25T20:32:15.686Z,23.93
2018-07-25T20:34:57.404Z,26.67
2018-07-25T20:37:38.205Z,11.87
2018-07-25T20:40:19.716Z,8.13
2018-07-25T20:43:01.061Z,4.00
2018-07-25T20:45:42.553Z,11.93
2018-07-25T20:48:23.184Z,8.80
2018-07-25T20:51:04.942Z,3.70
2018-07-25T20:53:45.591Z,3.30
2018-07-25T20:56:26.368Z,5.10
2018-07-25T20:59:08.049Z,6.30
2018-07-25T21:01:49.256Z,9.80
2018-07-25T21:04:30.770Z,11.70
2018-07-25T21:07:12.736Z,15.10
2018-07-25T21:09:53.964Z,12.83
2018-07-25T21:12:35.639Z,11.90
2018-07-25T21:15:18.360Z,5.50
2018-07-25T21:18:00.489Z,6.63
2018-07-25T21:20:41.270Z,11.20
2018-07-25T21:23:22.913Z,5.50
2018-07-25T21:26:04.688Z,6.13
2018-07-25T21:28:46.310Z,10.17
2018-07-25T21:31:28.344Z,6.50
2018-07-25T21:34:17.579Z,9.47
2018-07-25T21:37:03.133Z,4.87
2018-07-25T21:39:44.030Z,5.57
2018-07-25T21:42:24.930Z,4.80
2018-07-25T21:45:07.856Z,9.20
2018-07-25T21:47:48.910Z,10.50
2018-07-25T21:50:30.508Z,9.50
2018-07-25T21:53:11.719Z,8.00
2018-07-25T21:55:53.050Z,7.43
2018-07-25T21:58:34.633Z,6.70
2018-07-25T22:01:17.068Z,9.80
2018-07-25T22:03:59.496Z,3.17
2018-07-25T22:06:49.089Z,11.50
2018-07-25T22:09:34.524Z,9.10
2018-07-25T22:12:16.513Z,6.10
2018-07-25T22:15:04.046Z,3.50
2018-07-25T22:17:45.880Z,6.13
2018-07-25T22:20:42.223Z,4.10
2018-07-25T22:23:37.042Z,5.80
2018-07-25T22:26:23.319Z,15.30
2018-07-25T22:29:07.410Z,21.63
2018-07-25T22:32:00.160Z,14.27
2018-07-25T22:35:04.519Z,13.20
2018-07-25T22:41:56.450Z,5.13
2018-07-25T22:51:03.315Z,5.93
2018-07-25T22:58:44.910Z,10.13
2018-07-25T23:01:25.849Z,9.67
2018-07-25T23:13:29.323Z,17.90
2018-07-25T23:16:20.809Z,10.77
2018-07-25T23:19:36.554Z,12.70
2018-07-25T23:32:11.743Z,17.60
2018-07-25T23:35:10.636Z,5.60
2018-07-25T23:38:00.252Z,7.27
2018-07-25T23:40:48.166Z,3.80
2018-07-25T23:43:33.777Z,4.83
2018-07-25T23:46:18.466Z,5.43
2018-07-25T23:49:19.119Z,11.43
2018-07-25T23:52:10.527Z,2.73
2018-07-25T23:54:59.955Z,7.30
2018-07-25T23:57:46.453Z,3.77
